createdAt,value
2018-11-22T00:02:21.209Z,12.37
2018-11-22T00:22:29.105Z,12.17
2018-11-22T00:42:37.061Z,11.23
2018-11-22T01:02:45.284Z,11.00
2018-11-22T01:22:53.935Z,11.33
2018-11-22T01:43:01.892Z,11.77
2018-11-22T02:03:09.964Z,12.27
2018-11-22T02:23:17.948Z,12.10
2018-11-22T02:43:25.832Z,12.43
2018-11-22T03:03:33.721Z,12.07
2018-11-22T03:23:41.618Z,11.43
2018-11-22T03:43:49.516Z,10.77
2018-11-22T04:03:57.451Z,10.47
2018-11-22T04:24:05.301Z,10.90
2018-11-22T04:44:13.214Z,10.73
2018-11-22T05:04:21.104Z,11.23
2018-11-22T05:24:28.995Z,10.00
2018-11-22T05:44:36.891Z,10.37
2018-11-22T06:04:44.806Z,10.17
2018-11-22T06:24:52.734Z,11.70
2018-11-22T06:45:00.620Z,11.10
2018-11-22T07:05:10.515Z,11.53
2018-11-22T09:25:32.479Z,101.30
2018-11-22T09:26:20.780Z,111.73
2018-11-22T09:44:19.983Z,77.57
2018-11-22T09:45:08.618Z,85.00
2018-11-22T09:45:56.525Z,74.77
2018-11-22T09:46:44.478Z,81.00
2018-11-22T09:47:32.493Z,79.07
2018-11-22T10:02:01.976Z,141.87
2018-11-22T10:21:50.921Z,53.30
2018-11-22T10:22:39.086Z,55.67
2018-11-22T10:23:26.872Z,54.70
2018-11-22T10:24:14.910Z,54.60
2018-11-22T10:25:02.954Z,58.37
2018-11-22T10:25:50.938Z,58.03
2018-11-22T10:26:38.975Z,54.47
2018-11-22T10:27:26.978Z,51.73
2018-11-22T10:28:14.958Z,57.03
2018-11-22T10:29:02.893Z,54.73
2018-11-22T10:29:50.879Z,55.77
2018-11-22T10:30:38.832Z,56.70
2018-11-22T10:31:26.892Z,56.37
2018-11-22T10:32:14.744Z,56.20
2018-11-22T10:33:04.058Z,59.53
2018-11-22T10:33:52.025Z,57.90
2018-11-22T10:34:40.011Z,57.20
2018-11-22T10:35:29.345Z,55.27
2018-11-22T10:36:17.419Z,53.57
2018-11-22T10:56:23.344Z,47.47
2018-11-22T11:16:29.190Z,51.07
2018-11-22T11:36:35.025Z,45.40
2018-11-22T11:56:40.874Z,52.40
2018-11-22T12:16:46.783Z,49.93
2018-11-22T12:37:11.352Z,42.63
2018-11-22T12:57:17.205Z,47.43
2018-11-22T13:17:23.041Z,48.10
2018-11-22T13:37:28.880Z,43.90
2018-11-22T13:57:34.785Z,46.13
2018-11-22T14:17:40.701Z,50.43
2018-11-22T14:37:46.745Z,46.50
2018-11-22T14:57:52.596Z,44.20
2018-11-22T15:17:58.413Z,44.77
2018-11-22T15:38:04.240Z,56.03
2018-11-22T15:58:10.061Z,52.27
2018-11-22T16:18:15.940Z,48.50
2018-11-22T16:38:21.815Z,45.98
2018-11-22T16:58:27.657Z,41.48
2018-11-22T17:18:33.531Z,42.15
2018-11-22T17:38:39.349Z,38.43
2018-11-22T17:58:45.177Z,42.97
2018-11-22T18:18:50.987Z,41.40
2018-11-22T18:38:56.832Z,97.10
2018-11-22T18:59:02.647Z,48.93
2018-11-22T19:19:08.688Z,48.90
2018-11-22T19:39:14.564Z,44.33
2018-11-22T19:59:20.386Z,43.20
2018-11-22T20:19:26.245Z,45.30
2018-11-22T20:39:32.075Z,39.10
2018-11-22T20:59:37.895Z,38.90
2018-11-22T21:19:43.701Z,45.37
2018-11-22T21:39:49.512Z,40.37
2018-11-22T21:59:55.341Z,44.67
2018-11-22T22:20:01.164Z,44.47
2018-11-22T22:40:07.845Z,44.53
2018-11-22T23:00:40.492Z,42.30
2018-11-22T23:20:46.337Z,41.77
2018-11-22T23:40:52.170Z,41.00
